createdAt,value
2019-04-07T00:00:48.612Z,9.72
2019-04-07T00:01:47.927Z,9.77
2019-04-07T00:02:47.921Z,9.64
2019-04-07T00:03:48.337Z,9.68
2019-04-07T00:04:47.907Z,9.66
2019-04-07T00:05:48.267Z,9.65
2019-04-07T00:06:47.905Z,9.65
2019-04-07T00:07:48.336Z,9.65
2019-04-07T00:08:48.220Z,9.65
2019-04-07T00:09:47.887Z,9.62
2019-04-07T00:10:47.881Z,9.62
2019-04-07T00:11:48.529Z,9.54
2019-04-07T00:12:48.232Z,9.54
2019-04-07T00:13:48.135Z,9.54
2019-04-07T00:14:48.128Z,9.55
2019-04-07T00:15:47.849Z,9.44
2019-04-07T00:16:48.323Z,9.39
2019-04-07T00:17:47.845Z,9.43
2019-04-07T00:18:48.184Z,9.40
2019-04-07T00:19:48.081Z,9.39
2019-04-07T00:20:48.470Z,9.40
2019-04-07T00:21:47.951Z,9.36
2019-04-07T00:22:47.819Z,9.36
2019-04-07T00:23:47.889Z,9.32
2019-04-07T00:24:47.955Z,9.40
2019-04-07T00:25:47.987Z,9.31
2019-04-07T00:26:47.795Z,9.29
2019-04-07T00:27:47.785Z,9.26
2019-04-07T00:28:47.786Z,9.29
2019-04-07T00:29:47.777Z,9.25
2019-04-07T00:30:47.773Z,9.14
2019-04-07T00:31:47.769Z,9.14
2019-04-07T00:32:47.760Z,9.10
2019-04-07T00:33:47.758Z,9.13
2019-04-07T00:34:48.163Z,9.14
2019-04-07T00:35:47.744Z,9.18
2019-04-07T00:36:47.737Z,9.16
2019-04-07T00:37:48.243Z,9.10
2019-04-07T00:38:48.281Z,9.13
2019-04-07T00:39:47.749Z,9.18
2019-04-07T00:40:48.186Z,9.13
2019-04-07T00:41:47.710Z,9.16
2019-04-07T00:42:48.039Z,9.14
2019-04-07T00:43:47.700Z,9.14
2019-04-07T00:44:48.159Z,9.14
2019-04-07T00:45:48.122Z,9.13
2019-04-07T00:46:47.727Z,9.03
2019-04-07T00:47:47.767Z,9.10
2019-04-07T00:48:47.679Z,9.10
2019-04-07T00:49:47.674Z,9.04
2019-04-07T00:50:48.132Z,9.00
2019-04-07T00:51:47.660Z,9.02
2019-04-07T00:52:48.032Z,9.00
2019-04-07T00:53:47.644Z,9.00
2019-04-07T00:54:47.939Z,8.99
2019-04-07T00:55:47.638Z,8.95
2019-04-07T00:56:47.641Z,8.99
2019-04-07T00:57:48.239Z,8.95
2019-04-07T00:58:47.623Z,8.99
2019-04-07T00:59:47.617Z,9.02
2019-04-07T01:00:48.078Z,8.94
2019-04-07T01:01:47.618Z,8.94
2019-04-07T01:02:47.598Z,8.79
2019-04-07T01:03:48.160Z,8.81
2019-04-07T01:04:47.582Z,8.88
2019-04-07T01:05:47.943Z,8.82
2019-04-07T01:06:47.578Z,8.87
2019-04-07T01:07:47.568Z,8.82
2019-04-07T01:08:47.859Z,8.82
2019-04-07T01:09:47.973Z,8.73
2019-04-07T01:10:48.064Z,8.78
2019-04-07T01:11:47.604Z,8.76
2019-04-07T01:12:47.539Z,8.78
2019-04-07T01:13:47.532Z,8.71
2019-04-07T01:14:47.877Z,8.70
2019-04-07T01:15:47.527Z,8.76
2019-04-07T01:16:48.089Z,8.66
2019-04-07T01:17:47.513Z,8.66
2019-04-07T01:18:48.114Z,8.66
2019-04-07T01:19:47.499Z,8.63
2019-04-07T01:20:47.519Z,8.76
2019-04-07T01:21:47.758Z,8.69
2019-04-07T01:22:47.489Z,8.69
2019-04-07T01:23:47.896Z,8.70
2019-04-07T01:24:47.473Z,8.64
2019-04-07T01:25:47.468Z,8.69
2019-04-07T01:26:48.063Z,8.71
2019-04-07T01:27:47.454Z,8.61
2019-04-07T01:28:47.455Z,8.67
2019-04-07T01:29:47.562Z,8.66
2019-04-07T01:30:48.011Z,8.70
2019-04-07T01:31:47.431Z,8.67
2019-04-07T01:32:47.430Z,8.66
2019-04-07T01:33:47.789Z,8.64
2019-04-07T01:35:49.214Z,8.70
2019-04-07T01:36:48.035Z,8.70
2019-04-07T01:37:47.400Z,8.67
2019-04-07T01:38:47.504Z,8.64
2019-04-07T01:39:47.752Z,8.69
2019-04-07T01:40:47.710Z,8.64
2019-04-07T01:41:47.378Z,8.74
2019-04-07T01:42:47.368Z,8.61
2019-04-07T01:43:47.380Z,8.63
2019-04-07T01:44:47.364Z,8.61
2019-04-07T01:45:47.361Z,8.70
2019-04-07T01:46:47.353Z,8.70
2019-04-07T01:47:47.523Z,8.69
2019-04-07T01:48:47.354Z,8.63
2019-04-07T01:49:47.645Z,8.58
2019-04-07T01:50:47.323Z,8.61
2019-04-07T01:51:47.615Z,8.60
2019-04-07T01:52:47.314Z,8.58
2019-04-07T01:53:47.315Z,8.60
2019-04-07T01:54:47.304Z,8.56
2019-04-07T01:55:47.295Z,8.53
2019-04-07T01:56:48.156Z,8.56
2019-04-07T01:57:47.688Z,8.52
2019-04-07T01:58:47.280Z,8.55
2019-04-07T01:59:47.571Z,8.56
2019-04-07T02:00:48.338Z,8.60
2019-04-07T02:01:47.263Z,8.53
2019-04-07T02:02:47.831Z,8.56
2019-04-07T02:03:47.445Z,8.60
2019-04-07T02:04:47.907Z,8.61
2019-04-07T02:05:57.149Z,8.56
2019-04-07T02:06:47.519Z,8.64
2019-04-07T02:07:47.373Z,8.66
2019-04-07T02:08:47.497Z,8.69
2019-04-07T02:09:47.789Z,8.70
2019-04-07T02:10:47.216Z,8.74
2019-04-07T02:11:47.892Z,8.82
2019-04-07T02:12:47.808Z,8.89
2019-04-07T02:13:47.196Z,9.00
2019-04-07T02:14:47.188Z,9.00
2019-04-07T02:15:47.228Z,9.11
2019-04-07T02:16:47.179Z,9.14
2019-04-07T02:17:47.181Z,9.21
2019-04-07T02:18:47.387Z,9.29
2019-04-07T02:19:47.196Z,9.36
2019-04-07T02:20:47.610Z,9.34
2019-04-07T02:21:47.152Z,9.43
2019-04-07T02:22:47.145Z,9.43
2019-04-07T02:23:47.254Z,9.43
2019-04-07T02:24:47.134Z,9.61
2019-04-07T02:25:47.125Z,9.55
2019-04-07T02:26:47.183Z,9.62
2019-04-07T02:27:47.115Z,9.61
2019-04-07T02:28:47.262Z,9.68
2019-04-07T02:29:47.790Z,9.68
2019-04-07T02:30:48.099Z,9.66
2019-04-07T02:31:47.212Z,9.59
2019-04-07T02:32:47.400Z,9.68
2019-04-07T02:33:47.091Z,9.74
2019-04-07T02:34:47.073Z,9.79
2019-04-07T02:35:47.073Z,9.74
2019-04-07T02:36:47.066Z,9.76
2019-04-07T02:37:48.156Z,9.69
2019-04-07T02:38:47.067Z,9.83
2019-04-07T02:39:47.061Z,9.84
2019-04-07T02:40:47.345Z,9.86
2019-04-07T02:41:47.043Z,9.89
2019-04-07T02:42:47.030Z,9.84
2019-04-07T02:43:47.035Z,9.89
2019-04-07T02:44:47.023Z,9.76
2019-04-07T02:45:47.024Z,9.89
2019-04-07T02:46:47.008Z,9.92
2019-04-07T02:47:47.003Z,9.83
2019-04-07T02:48:47.001Z,9.89
2019-04-07T02:49:47.568Z,9.89
2019-04-07T02:50:46.994Z,9.84
2019-04-07T02:51:47.812Z,9.89
2019-04-07T02:52:47.376Z,9.87
2019-04-07T02:53:47.041Z,9.83
2019-04-07T02:54:46.973Z,9.86
2019-04-07T02:55:47.112Z,9.91
2019-04-07T02:56:47.315Z,9.73
2019-04-07T02:57:47.565Z,9.76
2019-04-07T02:58:47.772Z,9.77
2019-04-07T02:59:46.943Z,9.68
2019-04-07T03:00:46.979Z,9.68
2019-04-07T03:01:46.937Z,9.68
2019-04-07T03:02:47.723Z,9.64
2019-04-07T03:03:46.926Z,9.54
2019-04-07T03:04:47.494Z,9.48
2019-04-07T03:05:47.618Z,9.51
2019-04-07T03:06:52.082Z,9.58
2019-04-07T03:07:47.488Z,9.44
2019-04-07T03:08:47.500Z,9.48
2019-04-07T03:09:47.361Z,9.40
2019-04-07T03:10:47.372Z,9.34
2019-04-07T03:11:46.873Z,9.25
2019-04-07T03:12:46.868Z,9.37
2019-04-07T03:13:46.879Z,9.26
2019-04-07T03:14:47.650Z,9.29
2019-04-07T03:15:46.853Z,9.10
2019-04-07T03:16:47.504Z,9.13
2019-04-07T03:17:47.740Z,9.14
2019-04-07T03:18:46.844Z,9.10
2019-04-07T03:19:46.834Z,9.00
2019-04-07T03:20:47.472Z,9.02
2019-04-07T03:21:46.878Z,8.87
2019-04-07T03:22:47.080Z,8.81
2019-04-07T03:23:47.502Z,8.89
2019-04-07T03:24:46.857Z,8.71
2019-04-07T03:25:46.801Z,8.76
2019-04-07T03:26:47.728Z,8.81
2019-04-07T03:27:46.788Z,8.82
2019-04-07T03:28:47.484Z,8.64
2019-04-07T03:29:47.138Z,8.66
2019-04-07T03:30:47.967Z,8.64
2019-04-07T03:31:48.659Z,8.53
2019-04-07T03:32:49.358Z,8.61
2019-04-07T03:33:49.686Z,8.53
2019-04-07T03:34:48.801Z,8.48
2019-04-07T03:35:50.254Z,8.48
2019-04-07T03:37:12.701Z,8.37
2019-04-07T03:38:46.725Z,8.37
2019-04-07T03:39:46.720Z,8.33
2019-04-07T03:40:46.712Z,8.34
2019-04-07T03:41:47.222Z,8.28
2019-04-07T03:42:46.887Z,8.20
2019-04-07T03:43:46.698Z,8.19
2019-04-07T03:44:47.016Z,8.23
2019-04-07T03:45:46.742Z,8.26
2019-04-07T03:46:47.444Z,8.12
2019-04-07T03:47:47.026Z,8.15
2019-04-07T03:48:46.670Z,8.16
2019-04-07T03:49:47.649Z,8.13
2019-04-07T03:50:46.661Z,8.00
2019-04-07T03:51:46.651Z,8.09
2019-04-07T03:52:46.864Z,8.09
2019-04-07T03:53:47.454Z,7.98
2019-04-07T03:54:46.646Z,8.00
2019-04-07T03:55:46.634Z,8.00
2019-04-07T03:56:47.616Z,8.03
2019-04-07T03:57:47.730Z,7.93
2019-04-07T03:58:46.609Z,7.94
2019-04-07T03:59:46.608Z,7.94
2019-04-07T04:00:47.551Z,7.90
2019-04-07T04:01:47.752Z,7.87
2019-04-07T04:02:46.592Z,7.82
2019-04-07T04:03:46.579Z,7.80
2019-04-07T04:04:46.572Z,7.79
2019-04-07T04:05:47.714Z,7.69
2019-04-07T04:06:47.253Z,7.73
2019-04-07T04:07:47.245Z,7.76
2019-04-07T04:08:46.542Z,7.79
2019-04-07T04:09:47.587Z,7.70
2019-04-07T04:10:46.532Z,7.54
2019-04-07T04:11:47.007Z,7.56
2019-04-07T04:12:46.832Z,7.51
2019-04-07T04:13:47.729Z,7.56
2019-04-07T04:14:47.165Z,7.50
2019-04-07T04:15:46.910Z,7.39
2019-04-07T04:16:46.493Z,7.45
2019-04-07T04:17:46.486Z,7.39
2019-04-07T04:18:46.487Z,7.38
2019-04-07T04:19:46.670Z,7.32
2019-04-07T04:20:46.544Z,7.24
2019-04-07T04:21:46.464Z,7.28
2019-04-07T04:22:46.550Z,7.21
2019-04-07T04:23:46.833Z,7.31
2019-04-07T04:24:47.025Z,7.21
2019-04-07T04:25:47.094Z,7.24
2019-04-07T04:26:47.524Z,7.15
2019-04-07T04:27:46.730Z,7.13
2019-04-07T04:28:46.417Z,7.18
2019-04-07T04:29:46.571Z,7.18
2019-04-07T04:30:46.414Z,7.18
2019-04-07T04:31:47.372Z,7.18
2019-04-07T04:32:46.469Z,7.06
2019-04-07T04:33:46.486Z,7.10
2019-04-07T04:35:46.381Z,7.03
2019-04-07T04:36:46.569Z,7.07
2019-04-07T04:37:51.108Z,7.02
2019-04-07T04:38:46.355Z,6.99
2019-04-07T04:39:46.355Z,7.00
2019-04-07T04:40:46.350Z,6.95
2019-04-07T04:41:46.689Z,6.93
2019-04-07T04:42:46.527Z,6.95
2019-04-07T04:43:47.192Z,6.97
2019-04-07T04:44:46.322Z,6.93
2019-04-07T04:45:46.316Z,6.99
2019-04-07T04:46:46.303Z,6.95
2019-04-07T04:47:46.428Z,7.00
2019-04-07T04:48:47.280Z,6.87
2019-04-07T04:49:46.286Z,6.84
2019-04-07T04:50:47.162Z,6.88
2019-04-07T04:51:46.278Z,6.84
2019-04-07T04:52:46.886Z,6.82
2019-04-07T04:53:46.260Z,6.82
2019-04-07T04:54:46.310Z,6.82
2019-04-07T04:55:47.146Z,6.84
2019-04-07T04:56:46.922Z,6.96
2019-04-07T04:57:46.236Z,6.82
2019-04-07T04:59:46.227Z,6.85
2019-04-07T05:00:46.222Z,6.85
2019-04-07T05:01:46.209Z,6.87
2019-04-07T05:02:46.916Z,6.87
2019-04-07T05:03:46.264Z,6.84
2019-04-07T05:04:47.054Z,6.96
2019-04-07T05:05:46.909Z,6.95
2019-04-07T05:06:46.498Z,6.95
2019-04-07T05:07:54.000Z,6.84
2019-04-07T05:08:46.892Z,6.99
2019-04-07T05:09:51.163Z,6.97
2019-04-07T05:10:46.152Z,6.96
2019-04-07T05:11:46.201Z,6.97
2019-04-07T05:12:46.136Z,7.02
2019-04-07T05:13:46.712Z,6.96
2019-04-07T05:14:46.121Z,6.97
2019-04-07T05:15:46.695Z,6.97
2019-04-07T05:16:46.110Z,7.11
2019-04-07T05:17:46.110Z,7.11
2019-04-07T05:18:46.605Z,7.10
2019-04-07T05:19:46.584Z,7.23
2019-04-07T05:20:46.094Z,7.15
2019-04-07T05:21:46.082Z,7.25
2019-04-07T05:22:46.135Z,7.29
2019-04-07T05:23:46.077Z,7.35
2019-04-07T05:24:46.680Z,7.42
2019-04-07T05:25:46.261Z,7.47
2019-04-07T05:26:46.472Z,7.39
2019-04-07T05:27:46.063Z,7.47
2019-04-07T05:28:46.086Z,7.53
2019-04-07T05:29:46.547Z,7.61
2019-04-07T05:30:46.027Z,7.79
2019-04-07T05:31:46.019Z,7.76
2019-04-07T05:32:46.758Z,7.80
2019-04-07T05:33:46.481Z,7.87
2019-04-07T05:34:46.743Z,7.97
2019-04-07T05:35:45.996Z,8.01
2019-04-07T05:36:45.992Z,8.09
2019-04-07T05:37:46.019Z,8.08
2019-04-07T05:38:46.669Z,8.13
2019-04-07T05:39:46.280Z,8.13
2019-04-07T05:40:46.304Z,8.31
2019-04-07T05:41:46.507Z,8.33
2019-04-07T05:42:46.586Z,8.38
2019-04-07T05:43:45.949Z,8.44
2019-04-07T05:44:45.957Z,8.53
2019-04-07T05:45:46.406Z,8.51
2019-04-07T05:46:46.658Z,8.70
2019-04-07T05:47:48.631Z,8.73
2019-04-07T05:48:49.389Z,8.67
2019-04-07T05:49:46.064Z,8.73
2019-04-07T05:50:46.105Z,8.84
2019-04-07T05:51:45.898Z,8.88
2019-04-07T05:52:46.543Z,8.95
2019-04-07T05:53:48.040Z,9.06
2019-04-07T05:54:49.541Z,9.11
2019-04-07T05:55:46.068Z,9.14
2019-04-07T05:56:45.967Z,9.22
2019-04-07T05:57:46.512Z,9.37
2019-04-07T05:58:46.253Z,9.47
2019-04-07T05:59:46.046Z,9.39
2019-04-07T06:00:46.955Z,9.54
2019-04-07T06:01:45.840Z,9.54
2019-04-07T06:02:45.881Z,9.62
2019-04-07T06:03:45.929Z,9.72
2019-04-07T06:04:46.825Z,9.65
2019-04-07T06:05:48.269Z,9.79
2019-04-07T06:06:46.287Z,9.84
2019-04-07T06:07:45.984Z,9.83
2019-04-07T06:08:48.310Z,9.86
2019-04-07T06:09:50.079Z,10.04
2019-04-07T06:10:45.918Z,10.05
2019-04-07T06:11:46.407Z,10.09
2019-04-07T06:12:47.924Z,10.15
2019-04-07T06:13:46.555Z,10.23
2019-04-07T06:14:46.573Z,10.30
2019-04-07T06:15:45.842Z,10.42
2019-04-07T06:16:45.759Z,10.49
2019-04-07T06:17:45.833Z,10.56
2019-04-07T06:18:45.742Z,10.56
2019-04-07T06:19:45.746Z,10.59
2019-04-07T06:20:46.657Z,10.69
2019-04-07T06:21:47.342Z,10.72
2019-04-07T06:22:47.480Z,10.86
2019-04-07T06:23:45.775Z,10.84
2019-04-07T06:24:46.043Z,10.94
2019-04-07T06:25:46.411Z,11.05
2019-04-07T06:26:48.176Z,11.11
2019-04-07T06:27:46.655Z,11.19
2019-04-07T06:28:51.138Z,11.30
2019-04-07T06:29:45.707Z,11.37
2019-04-07T06:30:46.191Z,11.35
2019-04-07T06:31:45.680Z,11.41
2019-04-07T06:32:46.309Z,11.51
2019-04-07T06:33:45.845Z,11.59
2019-04-07T06:34:48.685Z,11.73
2019-04-07T06:35:47.338Z,11.70
2019-04-07T06:36:48.338Z,11.83
2019-04-07T06:37:45.653Z,11.90
2019-04-07T06:38:50.977Z,11.91
2019-04-07T06:39:50.072Z,11.97
2019-04-07T06:40:45.904Z,12.12
2019-04-07T06:41:45.635Z,12.18
2019-04-07T06:42:45.828Z,12.20
2019-04-07T06:43:46.329Z,12.15
2019-04-07T06:44:45.795Z,12.27
2019-04-07T06:45:45.611Z,12.37
2019-04-07T06:46:45.613Z,12.40
2019-04-07T06:47:45.603Z,12.50
2019-04-07T06:48:46.038Z,12.47
2019-04-07T06:49:47.189Z,12.55
2019-04-07T06:50:50.276Z,12.57
2019-04-07T06:51:45.592Z,12.64
2019-04-07T06:52:45.580Z,12.73
2019-04-07T06:53:48.711Z,12.75
2019-04-07T06:54:46.036Z,12.83
2019-04-07T06:55:46.140Z,12.94
2019-04-07T06:56:45.757Z,12.85
2019-04-07T06:57:46.527Z,13.04
2019-04-07T06:58:45.564Z,13.03
2019-04-07T06:59:48.871Z,13.09
2019-04-07T07:00:45.547Z,13.15
2019-04-07T07:01:45.932Z,13.25
2019-04-07T07:02:45.543Z,13.30
2019-04-07T07:03:45.545Z,13.38
2019-04-07T07:04:46.564Z,13.35
2019-04-07T07:05:46.192Z,13.46
2019-04-07T07:06:47.177Z,13.53
2019-04-07T07:07:45.814Z,13.63
2019-04-07T07:08:47.482Z,13.65
2019-04-07T07:09:45.861Z,13.71
2019-04-07T07:10:45.684Z,13.75
2019-04-07T07:11:46.130Z,13.86
2019-04-07T07:12:46.111Z,13.86
2019-04-07T07:13:45.503Z,13.92
2019-04-07T07:14:46.963Z,14.03
2019-04-07T07:15:46.007Z,14.08
2019-04-07T07:16:46.838Z,14.08
2019-04-07T07:17:48.157Z,14.14
2019-04-07T07:18:45.864Z,14.22
2019-04-07T07:19:45.472Z,14.28
2019-04-07T07:20:46.130Z,14.33
2019-04-07T07:21:45.468Z,14.43
2019-04-07T07:22:47.596Z,14.48
2019-04-07T07:23:48.933Z,14.50
2019-04-07T07:24:47.194Z,14.60
2019-04-07T07:25:45.512Z,14.65
2019-04-07T07:26:46.175Z,14.69
2019-04-07T07:27:46.131Z,14.82
2019-04-07T07:28:45.826Z,14.85
2019-04-07T07:29:47.431Z,14.92
2019-04-07T07:30:50.397Z,14.96
2019-04-07T07:31:45.442Z,15.07
2019-04-07T07:32:45.430Z,15.17
2019-04-07T07:33:45.431Z,15.15
2019-04-07T07:34:45.420Z,15.25
2019-04-07T07:35:48.793Z,15.31
2019-04-07T07:36:46.676Z,15.33
2019-04-07T07:37:45.548Z,15.42
2019-04-07T07:38:57.670Z,15.40
2019-04-07T07:39:46.269Z,15.44
2019-04-07T07:40:47.770Z,15.58
2019-04-07T07:41:45.682Z,15.59
2019-04-07T07:42:48.652Z,15.68
2019-04-07T07:43:46.030Z,15.64
2019-04-07T07:44:45.400Z,15.79
2019-04-07T07:45:48.151Z,15.88
2019-04-07T07:46:45.384Z,15.91
2019-04-07T07:47:46.451Z,15.90
2019-04-07T07:48:45.642Z,15.95
2019-04-07T07:49:45.379Z,16.00
2019-04-07T07:50:45.811Z,16.13
2019-04-07T07:51:48.399Z,16.20
2019-04-07T07:52:49.225Z,16.26
2019-04-07T07:53:46.112Z,16.33
2019-04-07T07:54:46.308Z,16.38
2019-04-07T07:55:45.550Z,16.42
2019-04-07T07:56:48.699Z,16.51
2019-04-07T07:57:45.355Z,16.51
2019-04-07T07:58:46.036Z,16.58
2019-04-07T07:59:45.359Z,16.66
2019-04-07T08:00:46.078Z,16.75
2019-04-07T08:01:47.042Z,16.90
2019-04-07T08:02:49.011Z,16.94
2019-04-07T08:03:45.883Z,16.97
2019-04-07T08:04:45.339Z,17.05
2019-04-07T08:05:45.504Z,17.23
2019-04-07T08:06:45.336Z,17.23
2019-04-07T08:07:48.209Z,17.29
2019-04-07T08:08:47.606Z,17.44
2019-04-07T08:09:45.335Z,17.49
2019-04-07T08:10:45.329Z,17.46
2019-04-07T08:11:45.327Z,17.60
2019-04-07T08:12:46.370Z,17.65
2019-04-07T08:13:46.157Z,17.68
2019-04-07T08:14:50.304Z,17.79
2019-04-07T08:15:45.840Z,17.76
2019-04-07T08:16:45.318Z,17.83
2019-04-07T08:17:45.319Z,17.90
2019-04-07T08:18:46.501Z,17.90
2019-04-07T08:19:45.650Z,18.08
2019-04-07T08:20:45.964Z,18.04
2019-04-07T08:21:45.615Z,18.15
2019-04-07T08:22:46.035Z,18.26
2019-04-07T08:23:45.474Z,18.33
2019-04-07T08:24:47.634Z,18.33
2019-04-07T08:25:45.603Z,18.44
2019-04-07T08:26:45.914Z,18.45
2019-04-07T08:27:45.311Z,18.55
2019-04-07T08:28:45.296Z,18.49
2019-04-07T08:29:45.301Z,18.56
2019-04-07T08:30:47.517Z,18.74
2019-04-07T08:31:45.302Z,18.77
2019-04-07T08:32:45.451Z,18.81
2019-04-07T08:33:45.295Z,18.90
2019-04-07T08:34:45.935Z,19.00
2019-04-07T08:35:45.292Z,19.08
2019-04-07T08:36:46.252Z,19.14
2019-04-07T08:37:47.114Z,19.18
2019-04-07T08:38:45.574Z,19.15
2019-04-07T08:39:45.293Z,19.21
2019-04-07T08:40:45.631Z,19.18
2019-04-07T08:41:45.898Z,19.27
2019-04-07T08:42:48.345Z,19.24
2019-04-07T08:43:45.314Z,19.24
2019-04-07T08:44:45.291Z,19.24
2019-04-07T08:45:45.986Z,19.29
2019-04-07T08:46:45.445Z,19.37
2019-04-07T08:47:47.471Z,19.41
2019-04-07T08:48:45.437Z,19.39
2019-04-07T08:49:46.000Z,19.45
2019-04-07T08:50:45.312Z,19.48
2019-04-07T08:51:45.941Z,19.52
2019-04-07T08:52:45.625Z,19.62
2019-04-07T08:53:46.074Z,19.67
2019-04-07T08:54:48.297Z,19.74
2019-04-07T08:55:47.798Z,19.79
2019-04-07T08:56:45.749Z,19.91
2019-04-07T08:57:45.742Z,19.73
2019-04-07T08:58:45.763Z,19.91
2019-04-07T08:59:45.339Z,19.96
2019-04-07T09:00:48.270Z,20.11
2019-04-07T09:01:45.284Z,20.10
2019-04-07T09:02:46.498Z,20.28
2019-04-07T09:03:45.763Z,20.21
2019-04-07T09:04:49.789Z,20.34
2019-04-07T09:05:45.531Z,20.28
2019-04-07T09:06:45.276Z,20.34
2019-04-07T09:07:45.900Z,20.34
2019-04-07T09:08:46.112Z,20.48
2019-04-07T09:09:47.818Z,20.39
2019-04-07T09:10:49.134Z,20.43
2019-04-07T09:11:45.958Z,20.48
2019-04-07T09:12:46.131Z,20.63
2019-04-07T09:13:45.277Z,20.65
2019-04-07T09:14:45.659Z,20.62
2019-04-07T09:15:47.553Z,20.77
2019-04-07T09:16:48.063Z,20.75
2019-04-07T09:17:47.394Z,20.72
2019-04-07T09:18:52.861Z,20.70
2019-04-07T09:19:45.767Z,20.69
2019-04-07T09:20:48.408Z,20.87
2019-04-07T09:21:49.567Z,20.82
2019-04-07T09:22:45.275Z,20.93
2019-04-07T09:23:45.772Z,21.00
2019-04-07T09:24:46.002Z,21.09
2019-04-07T09:25:45.269Z,21.17
2019-04-07T09:26:45.646Z,21.33
2019-04-07T09:27:46.056Z,21.42
2019-04-07T09:28:45.385Z,21.55
2019-04-07T09:29:46.037Z,21.58
2019-04-07T09:30:45.759Z,21.75
2019-04-07T09:31:45.276Z,21.76
2019-04-07T09:32:46.037Z,21.85
2019-04-07T09:33:48.137Z,21.93
2019-04-07T09:34:45.272Z,21.95
2019-04-07T09:35:45.271Z,21.96
2019-04-07T09:36:48.447Z,22.08
2019-04-07T09:37:45.272Z,22.13
2019-04-07T09:38:45.929Z,22.18
2019-04-07T09:39:56.958Z,22.22
2019-04-07T09:40:47.687Z,22.36
2019-04-07T09:41:45.279Z,22.41
2019-04-07T09:42:45.984Z,22.54
2019-04-07T09:43:45.444Z,22.53
2019-04-07T09:44:45.363Z,22.57
2019-04-07T09:45:45.853Z,22.84
2019-04-07T09:46:49.364Z,22.87
2019-04-07T09:47:47.210Z,22.83
2019-04-07T09:48:48.832Z,22.96
2019-04-07T09:49:48.439Z,22.93
2019-04-07T09:50:45.982Z,22.93
2019-04-07T09:51:45.286Z,23.21
2019-04-07T09:52:46.172Z,23.15
2019-04-07T09:53:48.788Z,23.08
2019-04-07T09:54:46.015Z,23.18
2019-04-07T09:55:46.431Z,23.32
2019-04-07T09:56:46.104Z,23.43
2019-04-07T09:57:45.283Z,23.61
2019-04-07T09:58:45.539Z,23.62
2019-04-07T09:59:46.644Z,23.77
2019-04-07T10:00:45.479Z,23.93
2019-04-07T10:01:45.859Z,24.14
2019-04-07T10:02:45.911Z,24.28
2019-04-07T10:03:45.288Z,24.32
2019-04-07T10:04:45.291Z,24.40
2019-04-07T10:05:45.296Z,24.51
2019-04-07T10:06:45.289Z,24.76
2019-04-07T10:07:45.299Z,24.80
2019-04-07T10:08:45.532Z,24.76
2019-04-07T10:09:45.880Z,24.86
2019-04-07T10:10:45.298Z,24.84
2019-04-07T10:11:46.154Z,24.84
2019-04-07T10:12:45.888Z,24.77
2019-04-07T10:13:45.402Z,24.77
2019-04-07T10:14:45.305Z,24.61
2019-04-07T10:15:45.306Z,24.47
2019-04-07T10:16:45.798Z,24.65
2019-04-07T10:17:45.316Z,24.84
2019-04-07T10:18:45.946Z,24.61
2019-04-07T10:19:45.755Z,24.68
2019-04-07T10:20:45.320Z,24.73
2019-04-07T10:21:45.325Z,24.77
2019-04-07T10:22:46.141Z,24.81
2019-04-07T10:23:45.865Z,24.88
2019-04-07T10:24:45.949Z,24.73
2019-04-07T10:25:45.548Z,24.74
2019-04-07T10:26:45.337Z,24.66
2019-04-07T10:27:45.341Z,24.77
2019-04-07T10:28:45.518Z,24.84
2019-04-07T10:29:45.352Z,24.77
2019-04-07T10:30:45.970Z,24.65
2019-04-07T10:31:45.362Z,24.80
2019-04-07T10:32:45.359Z,24.74
2019-04-07T10:33:46.081Z,24.98
2019-04-07T10:34:46.036Z,25.11
2019-04-07T10:35:45.646Z,25.08
2019-04-07T10:36:45.385Z,24.98
2019-04-07T10:37:45.389Z,25.07
2019-04-07T10:38:45.394Z,25.13
2019-04-07T10:39:46.145Z,25.14
2019-04-07T10:40:45.447Z,25.31
2019-04-07T10:41:45.426Z,25.40
2019-04-07T10:42:45.919Z,25.55
2019-04-07T10:43:45.427Z,25.54
2019-04-07T10:44:45.428Z,25.53
2019-04-07T10:45:45.911Z,25.70
2019-04-07T10:46:46.048Z,25.78
2019-04-07T10:47:46.112Z,25.78
2019-04-07T10:48:45.701Z,25.78
2019-04-07T10:49:57.553Z,25.87
2019-04-07T10:50:45.476Z,25.81
2019-04-07T10:51:45.937Z,26.02
2019-04-07T10:52:45.961Z,25.99
2019-04-07T10:53:45.496Z,25.91
2019-04-07T10:54:45.508Z,26.06
2019-04-07T10:55:45.564Z,26.19
2019-04-07T10:56:46.095Z,26.43
2019-04-07T10:57:45.526Z,26.53
2019-04-07T10:58:46.098Z,26.66
2019-04-07T10:59:45.542Z,26.71
2019-04-07T11:00:48.806Z,26.41
2019-04-07T11:01:45.798Z,26.60
2019-04-07T11:02:45.919Z,26.73
2019-04-07T11:03:45.587Z,26.80
2019-04-07T11:04:46.189Z,26.81
2019-04-07T11:05:45.598Z,26.95
2019-04-07T11:06:46.153Z,27.00
2019-04-07T11:07:45.803Z,27.11
2019-04-07T11:08:46.538Z,27.02
2019-04-07T11:09:45.889Z,27.14
2019-04-07T11:10:46.394Z,27.42
2019-04-07T11:11:48.119Z,27.45
2019-04-07T11:12:45.821Z,27.74
2019-04-07T11:14:45.692Z,27.25
2019-04-07T11:15:45.828Z,27.20
2019-04-07T11:16:46.291Z,27.12
2019-04-07T11:17:45.718Z,27.54
2019-04-07T11:18:45.726Z,27.67
2019-04-07T11:19:45.732Z,27.54
2019-04-07T11:20:47.138Z,27.55
2019-04-07T11:21:46.680Z,27.26
2019-04-07T11:22:45.757Z,27.05
2019-04-07T11:23:45.770Z,27.17
2019-04-07T11:25:46.127Z,27.02
2019-04-07T11:26:45.797Z,27.32
2019-04-07T11:27:46.712Z,26.73
2019-04-07T11:28:45.818Z,26.66
2019-04-07T11:29:45.828Z,26.56
2019-04-07T11:30:45.841Z,26.55
2019-04-07T11:31:45.852Z,26.44
2019-04-07T11:32:46.161Z,26.25
2019-04-07T11:33:45.875Z,26.07
2019-04-07T11:34:46.702Z,26.19
2019-04-07T11:35:45.885Z,26.15
2019-04-07T11:36:45.899Z,26.47
2019-04-07T11:37:45.949Z,26.45
2019-04-07T11:38:45.910Z,26.52
2019-04-07T11:39:46.391Z,26.65
2019-04-07T11:40:50.185Z,26.56
2019-04-07T11:41:46.053Z,26.77
2019-04-07T11:42:46.133Z,26.83
2019-04-07T11:43:46.801Z,27.02
2019-04-07T11:44:46.795Z,26.81
2019-04-07T11:45:56.135Z,26.85
2019-04-07T11:47:46.081Z,27.14
2019-04-07T11:48:46.800Z,27.22
2019-04-07T11:49:46.187Z,27.30
2019-04-07T11:50:46.194Z,27.59
2019-04-07T11:51:46.746Z,27.60
2019-04-07T11:52:46.220Z,27.82
2019-04-07T11:53:46.071Z,27.89
2019-04-07T11:54:46.076Z,27.73
2019-04-07T11:55:46.485Z,27.60
2019-04-07T11:56:47.144Z,27.51
2019-04-07T11:57:46.114Z,27.49
2019-04-07T11:58:46.119Z,27.75
2019-04-07T11:59:46.182Z,27.92
2019-04-07T12:00:46.329Z,27.92
2019-04-07T12:01:48.819Z,28.05
2019-04-07T12:02:46.942Z,28.05
2019-04-07T12:03:46.375Z,28.25
2019-04-07T12:04:46.881Z,28.19
2019-04-07T12:05:46.180Z,28.42
2019-04-07T12:06:48.816Z,28.45
2019-04-07T12:07:46.205Z,28.49
2019-04-07T12:08:46.749Z,28.27
2019-04-07T12:09:46.731Z,28.33
2019-04-07T12:11:46.517Z,28.93
2019-04-07T12:12:46.263Z,29.12
2019-04-07T12:13:46.750Z,29.20
2019-04-07T12:14:49.379Z,29.39
2019-04-07T12:15:46.373Z,29.45
2019-04-07T12:16:46.287Z,29.65
2019-04-07T12:17:46.302Z,29.60
2019-04-07T12:18:50.177Z,29.49
2019-04-07T12:19:46.554Z,29.54
2019-04-07T12:20:47.166Z,29.54
2019-04-07T12:21:46.983Z,29.61
2019-04-07T12:22:48.014Z,29.76
2019-04-07T12:23:46.527Z,29.68
2019-04-07T12:24:46.361Z,29.24
2019-04-07T12:25:47.140Z,28.76
2019-04-07T12:26:46.381Z,28.64
2019-04-07T12:27:47.130Z,28.69
2019-04-07T12:28:49.107Z,28.38
2019-04-07T12:29:47.177Z,27.87
2019-04-07T12:30:47.003Z,27.42
2019-04-07T12:31:46.698Z,27.32
2019-04-07T12:32:46.656Z,27.33
2019-04-07T12:33:46.450Z,27.17
2019-04-07T12:34:48.560Z,27.29
2019-04-07T12:35:50.979Z,27.64
2019-04-07T12:36:46.587Z,27.89
2019-04-07T12:37:46.658Z,27.95
2019-04-07T12:38:46.480Z,28.23
2019-04-07T12:39:48.771Z,28.48
2019-04-07T12:40:47.040Z,28.56
2019-04-07T12:41:46.495Z,27.95
2019-04-07T12:42:47.095Z,28.04
2019-04-07T12:43:49.267Z,28.26
2019-04-07T12:44:46.665Z,28.39
2019-04-07T12:45:46.753Z,28.48
2019-04-07T12:46:46.538Z,28.78
2019-04-07T12:47:47.468Z,29.05
2019-04-07T12:48:46.927Z,29.23
2019-04-07T12:49:46.938Z,29.47
2019-04-07T12:50:49.255Z,29.39
2019-04-07T12:51:47.232Z,29.19
2019-04-07T12:52:47.306Z,29.35
2019-04-07T12:53:46.585Z,28.54
2019-04-07T12:54:47.077Z,28.57
2019-04-07T12:55:53.443Z,28.82
2019-04-07T12:56:46.786Z,28.98
2019-04-07T12:57:46.609Z,29.19
2019-04-07T12:58:48.222Z,29.41
2019-04-07T12:59:50.057Z,29.41
2019-04-07T13:00:57.207Z,29.50
2019-04-07T13:01:48.502Z,29.34
2019-04-07T13:02:47.574Z,28.59
2019-04-07T13:03:47.275Z,29.02
2019-04-07T13:04:46.662Z,29.17
2019-04-07T13:05:46.675Z,29.26
2019-04-07T13:06:46.940Z,29.36
2019-04-07T13:07:50.327Z,29.45
2019-04-07T13:08:46.847Z,29.78
2019-04-07T13:09:46.703Z,30.08
2019-04-07T13:10:47.266Z,29.84
2019-04-07T13:11:49.726Z,29.90
2019-04-07T13:12:46.732Z,29.91